Time;durP1;ratioP1;P1;durP2;ratioP2;P2;SDS_P1;SDS_P2;PMS_P1;PMS_P2;Temp;Humidity;BMP_temperature;BMP_pressure;BME280_temperature;BME280_humidity;BME280_pressure;Samples;Min_cycle;Max_cycle;Signal;HPM_P1;HPM_P2
2023/05/15 00:01:28;;;;;;;31.50;19.43;;;;;;;11.32;100.00;101660.03;5058592;28;20102;-71
2023/05/15 00:03:53;;;;;;;37.38;20.75;;;;;;;11.33;100.00;101647.19;5081724;28;20028;-71
2023/05/15 00:06:19;;;;;;;34.83;20.67;;;;;;;11.34;100.00;101651.63;5079893;28;20054;-71
2023/05/15 00:08:46;;;;;;;34.33;21.77;;;;;;;11.29;100.00;101648.56;5053084;28;20021;-70
2023/05/15 00:11:12;;;;;;;29.98;20.17;;;;;;;11.20;100.00;101652.44;5074401;28;20475;-70
2023/05/15 00:13:37;;;;;;;30.33;20.93;;;;;;;11.15;100.00;101657.59;5075124;28;20085;-70
2023/05/15 00:16:05;;;;;;;30.03;20.63;;;;;;;11.11;100.00;101640.63;5069191;28;20020;-71
2023/05/15 00:18:30;;;;;;;31.48;20.05;;;;;;;11.06;100.00;101650.47;5068159;28;20017;-70
2023/05/15 00:20:56;;;;;;;34.47;20.87;;;;;;;10.97;100.00;101641.44;5081724;28;20360;-71
2023/05/15 00:23:21;;;;;;;37.88;20.83;;;;;;;10.92;100.00;101637.50;5073943;28;20032;-71
2023/05/15 00:25:47;;;;;;;30.45;20.73;;;;;;;10.80;100.00;101634.34;5058254;28;20047;-72
2023/05/15 00:28:12;;;;;;;37.70;21.00;;;;;;;10.74;100.00;101639.69;5075579;28;20059;-72
2023/05/15 00:30:38;;;;;;;30.43;20.17;;;;;;;10.67;100.00;101634.03;5075394;28;20459;-72
2023/05/15 00:33:03;;;;;;;34.78;22.23;;;;;;;10.60;100.00;101632.19;5079895;28;20048;-71
2023/05/15 00:35:28;;;;;;;30.30;20.30;;;;;;;10.50;100.00;101623.34;5059201;28;20118;-71
2023/05/15 00:37:54;;;;;;;29.17;21.00;;;;;;;10.45;100.00;101623.00;5077585;28;20377;-72
2023/05/15 00:40:22;;;;;;;34.53;20.60;;;;;;;10.35;100.00;101615.00;5077975;28;20036;-72
2023/05/15 00:42:49;;;;;;;34.78;19.90;;;;;;;10.27;100.00;101616.94;5058048;28;20033;-72
2023/05/15 00:45:15;;;;;;;28.63;20.85;;;;;;;10.22;100.00;101620.22;5079009;28;20501;-72
2023/05/15 00:47:42;;;;;;;32.95;21.42;;;;;;;10.14;100.00;101622.97;5073033;28;20032;-71
2023/05/15 00:50:08;;;;;;;36.30;21.17;;;;;;;10.07;100.00;101615.63;5059330;28;20028;-72
2023/05/15 00:52:35;;;;;;;30.10;21.45;;;;;;;10.11;100.00;101622.47;5076084;28;20121;-71
2023/05/15 00:55:00;;;;;;;34.42;19.98;;;;;;;10.00;100.00;101611.84;5058305;28;20464;-71
2023/05/15 00:57:26;;;;;;;31.58;20.58;;;;;;;10.01;100.00;101614.41;5076039;28;20042;-72
2023/05/15 00:59:53;;;;;;;36.10;21.40;;;;;;;9.93;100.00;101614.44;5074285;28;20365;-71
2023/05/15 01:02:18;;;;;;;30.38;21.52;;;;;;;9.93;100.00;101608.13;5070329;28;20036;-71
2023/05/15 01:04:44;;;;;;;32.47;23.40;;;;;;;9.94;100.00;101605.19;5056011;28;20441;-71
2023/05/15 01:07:10;;;;;;;31.90;22.07;;;;;;;9.95;100.00;101606.91;5073271;28;20027;-71
2023/05/15 01:09:40;;;;;;;33.53;24.80;;;;;;;10.01;100.00;101602.59;5060224;28;20486;-72
2023/05/15 01:12:08;;;;;;;35.55;25.33;;;;;;;10.03;100.00;101614.25;5078049;28;20050;-71
2023/05/15 01:14:33;;;;;;;38.67;26.00;;;;;;;10.15;100.00;101626.56;5077154;28;20024;-72
2023/05/15 01:16:59;;;;;;;42.87;27.90;;;;;;;10.20;100.00;101624.16;5079853;28;20024;-72
2023/05/15 01:19:24;;;;;;;40.13;28.90;;;;;;;10.18;100.00;101615.25;5075510;28;20066;-72
2023/05/15 01:22:21;;;;;;;46.70;30.17;;;;;;;10.23;100.00;101610.97;5076594;28;20024;-71
2023/05/15 01:25:23;;;;;;;42.30;31.17;;;;;;;10.21;100.00;101612.16;5080005;28;20502;-72
2023/05/15 01:27:56;;;;;;;47.38;31.08;;;;;;;10.27;100.00;101612.31;5076780;28;20094;-72
2023/05/15 01:30:22;;;;;;;43.88;32.60;;;;;;;10.28;100.00;101618.63;5079974;28;20024;-71
2023/05/15 01:33:06;;;;;;;49.15;31.08;;;;;;;10.26;100.00;101626.19;5074108;28;20037;-71
2023/05/15 01:35:40;;;;;;;49.03;31.25;;;;;;;10.22;100.00;101614.72;5060729;28;20083;-71
2023/05/15 01:38:29;;;;;;;54.55;32.67;;;;;;;10.17;100.00;101613.53;5081967;28;20051;-72
2023/05/15 01:41:19;;;;;;;44.72;31.77;;;;;;;10.11;100.00;101603.28;5078436;28;20027;-72
2023/05/15 01:43:51;;;;;;;44.90;31.33;;;;;;;10.06;100.00;101597.50;5077888;28;20024;-72
2023/05/15 01:46:20;;;;;;;47.83;32.70;;;;;;;10.05;100.00;101598.53;5054623;28;20021;-72
2023/05/15 01:48:48;;;;;;;48.70;33.13;;;;;;;10.01;100.00;101595.25;5086761;28;20020;-72
2023/05/15 01:51:15;;;;;;;44.13;31.63;;;;;;;9.94;100.00;101599.72;5081207;28;20039;-72
2023/05/15 01:53:42;;;;;;;47.95;32.42;;;;;;;9.93;100.00;101595.25;5063973;28;20035;-72
2023/05/15 01:56:13;;;;;;;54.15;33.47;;;;;;;9.87;100.00;101598.72;5078246;28;20503;-72
2023/05/15 01:58:39;;;;;;;44.75;31.60;;;;;;;9.82;100.00;101601.09;5059805;28;20111;-71
2023/05/15 02:01:05;;;;;;;;;;;;;;;9.79;100.00;101604.22;5064192;28;20048;-72
2023/05/15 02:03:35;;;;;;;44.17;30.70;;;;;;;9.77;100.00;101599.94;5076294;28;20413;-72
2023/05/15 02:06:03;;;;;;;42.50;30.42;;;;;;;9.73;100.00;101609.50;5065756;28;20028;-72
2023/05/15 02:08:30;;;;;;;49.63;32.67;;;;;;;9.75;100.00;101596.50;5083238;28;20032;-71
2023/05/15 02:10:58;;;;;;;46.88;33.15;;;;;;;9.75;100.00;101594.63;5043168;28;20025;-72
2023/05/15 02:13:25;;;;;;;44.20;30.85;;;;;;;9.74;100.00;101598.41;5076392;28;20103;-72
2023/05/15 02:15:51;;;;;;;46.80;31.92;;;;;;;9.84;100.00;101595.47;5052745;28;20033;-72
2023/05/15 02:18:17;;;;;;;46.17;32.17;;;;;;;9.82;100.00;101595.63;5074906;28;20085;-71
2023/05/15 02:20:44;;;;;;;39.55;30.92;;;;;;;9.82;100.00;101601.09;5058760;28;20111;-71
2023/05/15 02:23:10;;;;;;;49.22;32.75;;;;;;;9.78;100.00;101598.91;5080379;28;20040;-71
2023/05/15 02:26:00;;;;;;;46.03;30.70;;;;;;;9.70;100.00;101594.31;5082978;28;20034;-71
2023/05/15 02:28:37;;;;;;;42.88;30.52;;;;;;;9.61;100.00;101602.69;5080096;28;20081;-70
2023/05/15 02:31:11;;;;;;;;;;;;;;;9.59;100.00;101600.13;5076098;28;20024;-72
2023/05/15 02:33:49;;;;;;;44.90;31.15;;;;;;;9.57;100.00;101590.38;5080553;28;20387;-70
2023/05/15 02:36:18;;;;;;;;;;;;;;;9.60;100.00;101595.53;5073865;28;20476;-70
2023/05/15 02:38:52;;;;;;;38.63;29.60;;;;;;;9.60;100.00;101603.72;5074651;28;19912;-70
2023/05/15 02:41:18;;;;;;;46.85;29.83;;;;;;;9.53;100.00;101597.22;5082151;28;20020;-69
2023/05/15 02:43:45;;;;;;;41.30;29.97;;;;;;;9.58;100.00;101592.09;5075907;28;20469;-69
2023/05/15 02:46:12;;;;;;;45.72;29.38;;;;;;;9.65;100.00;101587.63;5063783;28;20024;-70
2023/05/15 02:48:39;;;;;;;44.22;30.05;;;;;;;9.64;100.00;101585.91;5073278;28;20060;-69
2023/05/15 02:51:06;;;;;;;42.63;29.60;;;;;;;9.65;100.00;101590.34;5083351;28;20034;-69
2023/05/15 02:53:37;;;;;;;47.08;30.23;;;;;;;9.57;100.00;101594.00;5077222;28;20029;-72
2023/05/15 02:56:03;;;;;;;51.17;31.02;;;;;;;9.49;100.00;101582.16;5070280;28;20024;-71
2023/05/15 02:58:28;;;;;;;41.00;29.47;;;;;;;9.55;100.00;101584.25;5072709;28;20039;-72
2023/05/15 03:00:54;;;;;;;43.15;30.23;;;;;;;9.55;100.00;101581.50;5080449;28;20395;-72
2023/05/15 03:03:19;;;;;;;45.20;30.27;;;;;;;9.50;100.00;101578.44;5074113;28;20161;-72
2023/05/15 03:05:45;;;;;;;44.47;31.43;;;;;;;9.54;100.00;101580.66;5080096;28;20112;-71
2023/05/15 03:08:10;;;;;;;39.40;31.05;;;;;;;9.48;100.00;101575.88;5055495;28;20425;-72
2023/05/15 03:10:35;;;;;;;43.88;29.08;;;;;;;9.54;100.00;101571.56;5079915;28;20067;-72
2023/05/15 03:13:01;;;;;;;49.73;31.73;;;;;;;9.47;100.00;101573.31;5079643;28;20550;-71
2023/05/15 03:15:34;;;;;;;43.70;30.10;;;;;;;9.46;100.00;101568.88;5059842;28;20515;-73
2023/05/15 03:18:00;;;;;;;42.97;30.10;;;;;;;9.36;100.00;101562.72;5075844;28;20438;-72
2023/05/15 03:20:26;;;;;;;38.07;27.63;;;;;;;9.36;100.00;101568.19;5082426;28;20066;-71
2023/05/15 03:22:52;;;;;;;40.35;28.25;;;;;;;9.32;100.00;101567.69;5074628;28;20028;-71
2023/05/15 03:25:17;;;;;;;45.13;29.63;;;;;;;9.29;100.00;101567.16;5075774;28;20025;-71
2023/05/15 03:27:42;;;;;;;39.30;27.80;;;;;;;9.24;100.00;101567.66;5060771;28;20484;-71
2023/05/15 03:30:08;;;;;;;43.45;29.02;;;;;;;9.25;100.00;101565.81;5078922;28;20028;-71
2023/05/15 03:32:34;;;;;;;45.53;30.63;;;;;;;9.20;100.00;101569.06;5043584;28;20049;-71
2023/05/15 03:35:00;;;;;;;43.10;30.15;;;;;;;9.17;100.00;101565.78;5078398;28;20031;-71
2023/05/15 03:37:25;;;;;;;41.53;28.70;;;;;;;9.15;100.00;101568.72;5077336;28;20252;-72
2023/05/15 03:39:50;;;;;;;40.25;29.42;;;;;;;9.16;100.00;101569.53;5075535;28;20047;-71
2023/05/15 03:42:22;;;;;;;44.97;30.00;;;;;;;9.06;100.00;101575.19;5080198;28;20024;-71
2023/05/15 03:44:47;;;;;;;41.22;30.70;;;;;;;9.06;100.00;101575.19;5049669;28;20020;-71
2023/05/15 03:47:13;;;;;;;39.47;29.37;;;;;;;9.06;100.00;101585.25;5078014;28;20051;-72
2023/05/15 03:49:38;;;;;;;42.27;31.10;;;;;;;9.07;100.00;101584.25;5054803;28;20020;-72
2023/05/15 03:52:05;;;;;;;40.27;30.07;;;;;;;9.13;100.00;101591.78;5082164;28;20024;-71
2023/05/15 03:54:30;;;;;;;42.30;30.67;;;;;;;9.15;100.00;101584.25;5075611;28;20048;-71
2023/05/15 03:56:56;;;;;;;40.53;30.43;;;;;;;9.17;100.00;101579.44;5075887;28;20058;-71
2023/05/15 03:59:21;;;;;;;41.43;30.63;;;;;;;9.24;100.00;101575.03;5073491;28;20024;-71
2023/05/15 04:01:47;;;;;;;48.43;31.43;;;;;;;9.32;100.00;101585.94;5068006;28;20443;-71
2023/05/15 04:04:12;;;;;;;42.40;31.50;;;;;;;9.33;100.00;101585.78;5078435;28;20039;-72
2023/05/15 04:06:37;;;;;;;53.00;32.60;;;;;;;9.41;100.00;101591.28;5077910;28;20036;-72
2023/05/15 04:09:03;;;;;;;47.70;33.60;;;;;;;9.46;100.00;101599.78;5059316;28;20472;-71
2023/05/15 04:11:28;;;;;;;43.92;32.63;;;;;;;9.59;100.00;101591.91;5051720;28;20032;-71
2023/05/15 04:13:54;;;;;;;49.30;32.85;;;;;;;9.67;100.00;101604.75;5074864;28;20028;-71
2023/05/15 04:16:19;;;;;;;51.75;33.53;;;;;;;9.82;100.00;101603.00;5075227;28;20578;-72
2023/05/15 04:18:45;;;;;;;50.95;33.75;;;;;;;9.97;100.00;101598.50;5078909;28;20020;-71
2023/05/15 04:21:10;;;;;;;51.13;34.10;;;;;;;10.07;100.00;101601.94;5056554;28;20099;-72
2023/05/15 04:23:35;;;;;;;46.47;33.53;;;;;;;10.18;100.00;101604.28;5079690;28;20069;-71
2023/05/15 04:26:01;;;;;;;48.20;33.50;;;;;;;10.24;100.00;101595.41;5077452;28;20020;-71
2023/05/15 04:28:26;;;;;;;55.77;35.53;;;;;;;10.42;100.00;101593.25;5066485;28;20699;-72
2023/05/15 04:30:52;;;;;;;48.85;34.05;;;;;;;10.43;100.00;101595.81;5076409;28;20023;-72
2023/05/15 04:33:17;;;;;;;55.17;34.67;;;;;;;10.51;100.00;101583.97;5059373;28;20041;-72
2023/05/15 04:35:43;;;;;;;46.05;34.60;;;;;;;10.54;100.00;101583.59;5076607;28;20034;-72
2023/05/15 04:38:08;;;;;;;47.50;34.53;;;;;;;10.61;100.00;101587.31;5078227;28;20028;-72
2023/05/15 04:40:34;;;;;;;45.20;35.03;;;;;;;10.67;100.00;101579.25;5058096;28;20028;-72
2023/05/15 04:42:59;;;;;;;47.37;34.50;;;;;;;10.72;100.00;101585.03;5059978;28;20028;-72
2023/05/15 04:45:25;;;;;;;46.63;33.83;;;;;;;10.82;100.00;101576.59;5055794;28;20028;-73
2023/05/15 04:47:50;;;;;;;46.47;32.77;;;;;;;10.90;100.00;101577.38;5067464;28;20038;-72
2023/05/15 04:50:15;;;;;;;50.33;31.50;;;;;;;11.02;100.00;101577.81;5057974;28;20035;-72
2023/05/15 04:52:44;;;;;;;44.63;31.38;;;;;;;11.21;100.00;101580.09;5082184;28;20179;-72
2023/05/15 04:55:10;;;;;;;49.80;32.05;;;;;;;11.31;100.00;101580.69;5062633;28;20024;-72
2023/05/15 04:57:35;;;;;;;41.60;30.63;;;;;;;11.40;100.00;101588.66;5073331;28;20046;-72
2023/05/15 05:00:01;;;;;;;39.33;28.77;;;;;;;11.48;100.00;101582.25;5073230;28;20032;-72
2023/05/15 05:02:26;;;;;;;36.42;27.55;;;;;;;11.51;100.00;101581.88;5058686;28;20387;-72
2023/05/15 05:04:52;;;;;;;29.67;24.97;;;;;;;11.58;100.00;101589.19;5054902;28;20032;-72
2023/05/15 05:07:17;;;;;;;34.47;27.27;;;;;;;11.76;100.00;101589.75;5077395;28;20040;-73
2023/05/15 05:09:43;;;;;;;34.60;25.80;;;;;;;11.83;100.00;101576.97;5072816;28;20048;-73
2023/05/15 05:12:09;;;;;;;33.47;25.40;;;;;;;11.89;100.00;101578.97;5075753;28;20114;-73
2023/05/15 05:14:35;;;;;;;31.83;25.57;;;;;;;12.04;100.00;101589.94;5069568;28;20036;-72
2023/05/15 05:17:00;;;;;;;38.20;24.37;;;;;;;11.98;100.00;101590.69;5075555;28;20028;-73
2023/05/15 05:19:27;;;;;;;33.10;25.27;;;;;;;12.02;100.00;101592.03;5060945;28;20032;-73
2023/05/15 05:21:53;;;;;;;34.20;26.10;;;;;;;12.03;100.00;101582.75;5074519;28;20028;-74
2023/05/15 05:24:18;;;;;;;33.93;25.57;;;;;;;11.99;100.00;101576.78;5069244;28;20074;-73
2023/05/15 05:26:44;;;;;;;32.70;25.47;;;;;;;12.13;100.00;101578.69;5080373;28;20024;-73
2023/05/15 05:29:09;;;;;;;33.17;23.47;;;;;;;12.21;100.00;101580.47;5080205;28;20023;-73
2023/05/15 05:31:35;;;;;;;31.13;24.70;;;;;;;12.30;100.00;101577.47;5082593;28;20086;-73
2023/05/15 05:34:00;;;;;;;32.50;25.57;;;;;;;12.33;100.00;101585.28;5075928;28;20034;-74
2023/05/15 05:36:26;;;;;;;33.33;26.00;;;;;;;12.28;100.00;101584.19;5078275;28;20106;-72
2023/05/15 05:38:52;;;;;;;33.20;26.93;;;;;;;12.15;100.00;101581.22;5085212;28;20050;-72
2023/05/15 05:41:17;;;;;;;32.13;24.60;;;;;;;11.88;100.00;101590.97;5052568;28;20066;-72
2023/05/15 05:43:43;;;;;;;36.97;25.13;;;;;;;11.95;100.00;101591.94;5075140;28;20024;-73
2023/05/15 05:46:08;;;;;;;33.40;25.17;;;;;;;12.12;100.00;101592.63;5076145;28;20460;-73
2023/05/15 05:48:33;;;;;;;35.53;27.73;;;;;;;12.28;100.00;101586.94;5058388;28;20032;-72
2023/05/15 05:50:59;;;;;;;34.17;27.43;;;;;;;12.48;100.00;101574.31;5061558;28;20035;-72
2023/05/15 05:53:24;;;;;;;34.30;26.30;;;;;;;12.43;100.00;101580.38;5075063;28;20100;-73
2023/05/15 05:55:50;;;;;;;36.57;28.07;;;;;;;12.49;100.00;101574.09;5063501;28;20074;-72
2023/05/15 05:58:17;;;;;;;36.87;29.40;;;;;;;13.26;98.82;101578.84;5070849;28;20032;-73
2023/05/15 06:00:43;;;;;;;34.65;26.75;;;;;;;13.92;95.02;101574.75;5067830;28;20428;-73
2023/05/15 06:03:08;;;;;;;33.00;26.43;;;;;;;15.18;89.83;101574.06;5059690;28;20021;-73
2023/05/15 06:05:34;;;;;;;28.53;22.27;;;;;;;16.14;83.62;101560.50;5052089;28;20040;-72
2023/05/15 06:08:01;;;;;;;31.43;22.40;;;;;;;16.73;80.54;101570.31;5071576;28;20029;-73
2023/05/15 06:10:26;;;;;;;27.35;20.70;;;;;;;17.39;77.13;101571.66;5071358;28;20027;-74
2023/05/15 06:12:51;;;;;;;26.77;18.67;;;;;;;18.06;72.71;101573.66;5077075;28;20379;-73
2023/05/15 06:15:17;;;;;;;20.20;18.07;;;;;;;18.24;69.92;101568.16;5078458;28;20032;-72
2023/05/15 06:17:42;;;;;;;21.33;17.37;;;;;;;18.39;70.39;101566.72;5068640;28;20024;-73
2023/05/15 06:20:08;;;;;;;21.80;15.87;;;;;;;18.39;70.83;101568.63;5074355;28;20048;-73
2023/05/15 06:22:35;;;;;;;21.75;16.63;;;;;;;18.68;70.30;101565.09;5071587;28;20471;-73
2023/05/15 06:25:03;;;;;;;22.02;16.08;;;;;;;18.93;66.03;101563.91;5075272;28;20399;-73
2023/05/15 06:27:28;;;;;;;20.95;16.63;;;;;;;18.69;67.26;101562.09;5071403;28;20028;-73
2023/05/15 06:29:54;;;;;;;18.93;16.13;;;;;;;17.78;68.39;101562.19;5071685;28;20031;-73
2023/05/15 06:32:19;;;;;;;18.77;16.58;;;;;;;17.14;72.34;101565.19;5072863;28;20140;-73
2023/05/15 06:34:45;;;;;;;19.97;16.20;;;;;;;17.08;74.41;101568.03;5060833;28;20435;-72
2023/05/15 06:37:10;;;;;;;20.53;16.73;;;;;;;16.72;73.62;101565.00;5062095;28;20355;-72
2023/05/15 06:39:36;;;;;;;17.97;16.07;;;;;;;16.44;75.73;101567.25;5068775;28;20029;-72
2023/05/15 06:42:01;;;;;;;22.57;17.23;;;;;;;15.97;76.44;101571.16;5068305;28;20112;-72
2023/05/15 06:44:28;;;;;;;19.17;17.13;;;;;;;15.51;76.73;101577.75;5070856;28;20044;-72
2023/05/15 06:46:54;;;;;;;25.08;17.25;;;;;;;15.00;79.63;101576.59;5077940;28;20040;-72
2023/05/15 06:49:20;;;;;;;19.83;16.33;;;;;;;14.74;81.94;101579.25;5051600;28;20384;-72
2023/05/15 06:51:45;;;;;;;24.17;17.67;;;;;;;14.76;82.92;101575.22;5074346;28;20028;-72
2023/05/15 06:54:11;;;;;;;23.17;17.60;;;;;;;14.85;83.21;101575.88;5057133;28;20843;-72
2023/05/15 06:56:36;;;;;;;23.73;18.67;;;;;;;14.93;82.95;101570.16;5072906;28;20028;-72
2023/05/15 06:59:01;;;;;;;23.57;18.53;;;;;;;14.95;82.28;101563.38;5064145;28;20027;-74
2023/05/15 07:01:27;;;;;;;20.83;18.03;;;;;;;14.75;83.28;101568.03;5069082;28;20060;-73
2023/05/15 07:03:52;;;;;;;20.80;18.23;;;;;;;14.69;84.79;101573.50;5060086;28;20049;-72
2023/05/15 07:06:17;;;;;;;23.67;19.17;;;;;;;14.66;84.01;101579.41;5051192;28;20506;-72
2023/05/15 07:08:43;;;;;;;27.97;19.77;;;;;;;14.84;85.00;101574.19;5076609;28;20106;-72
2023/05/15 07:11:08;;;;;;;28.73;18.67;;;;;;;14.79;83.35;101582.25;5076003;28;20044;-72
2023/05/15 07:13:34;;;;;;;26.93;19.03;;;;;;;14.63;82.76;101579.84;5063331;28;20028;-72
2023/05/15 07:15:59;;;;;;;26.37;20.07;;;;;;;14.66;82.03;101576.66;5072878;28;20038;-72
2023/05/15 07:18:24;;;;;;;22.70;19.20;;;;;;;14.73;83.91;101574.78;5067639;28;20105;-72
2023/05/15 07:20:50;;;;;;;22.80;19.23;;;;;;;14.80;84.52;101571.00;5080792;28;20032;-72
2023/05/15 07:23:15;;;;;;;28.83;19.20;;;;;;;14.70;84.66;101570.53;5055431;28;20024;-72
2023/05/15 07:25:41;;;;;;;23.37;20.23;;;;;;;14.78;83.43;101570.34;5070566;28;20079;-72
2023/05/15 07:28:06;;;;;;;26.47;20.13;;;;;;;14.78;83.71;101569.50;5054426;28;20036;-72
2023/05/15 07:30:31;;;;;;;25.17;20.27;;;;;;;14.81;84.02;101572.69;5071757;28;20074;-72
2023/05/15 07:32:57;;;;;;;27.07;21.20;;;;;;;14.66;84.22;101574.75;5072639;28;20475;-71
2023/05/15 07:35:22;;;;;;;27.17;20.77;;;;;;;14.70;84.12;101570.53;5063265;28;20114;-71
2023/05/15 07:37:48;;;;;;;29.57;21.10;;;;;;;14.80;84.98;101567.38;5073474;28;20028;-71
2023/05/15 07:40:14;;;;;;;24.53;19.53;;;;;;;14.87;84.68;101566.34;5056886;28;20024;-71
2023/05/15 07:42:41;;;;;;;29.25;20.63;;;;;;;14.85;84.65;101559.34;5070136;28;20047;-71
2023/05/15 07:45:06;;;;;;;;;;;;;;;14.90;83.61;101563.16;5068805;28;20037;-71
2023/05/15 07:47:32;;;;;;;27.08;21.65;;;;;;;14.82;85.25;101560.59;5055572;28;19935;-72
2023/05/15 07:50:00;;;;;;;30.43;22.27;;;;;;;14.97;85.27;101572.31;5070222;28;20053;-71
2023/05/15 07:52:26;;;;;;;28.27;22.23;;;;;;;14.88;84.59;101564.47;5074904;28;20108;-71
2023/05/15 07:54:51;;;;;;;30.57;22.63;;;;;;;14.87;85.02;101562.72;5076531;28;20116;-72
2023/05/15 07:57:17;;;;;;;34.23;23.43;;;;;;;14.85;83.90;101565.72;5072779;28;20036;-71
2023/05/15 07:59:42;;;;;;;34.20;22.27;;;;;;;14.79;85.75;101576.72;5069650;28;20433;-71
2023/05/15 08:02:08;;;;;;;27.10;22.43;;;;;;;15.02;85.87;101579.97;5071880;28;20047;-72
2023/05/15 08:04:33;;;;;;;32.00;22.93;;;;;;;15.00;86.02;101582.09;5052649;28;20199;-71
2023/05/15 08:06:59;;;;;;;33.90;23.23;;;;;;;15.04;85.10;101584.22;5078942;28;20045;-71
2023/05/15 08:09:24;;;;;;;32.30;23.10;;;;;;;15.06;84.57;101584.03;5076472;28;20036;-71
2023/05/15 08:11:49;;;;;;;29.90;22.60;;;;;;;15.09;85.93;101580.81;5078917;28;20032;-71
2023/05/15 08:14:15;;;;;;;30.63;21.67;;;;;;;15.14;84.93;101587.44;5070286;28;20048;-71
2023/05/15 08:16:41;;;;;;;26.17;20.67;;;;;;;15.07;84.68;101591.22;5050265;28;20028;-72
2023/05/15 08:19:06;;;;;;;29.33;21.03;;;;;;;15.19;84.52;101584.03;5073122;28;20034;-74
2023/05/15 08:21:32;;;;;;;25.80;20.93;;;;;;;15.15;85.18;101588.31;5060213;28;20105;-71
2023/05/15 08:23:59;;;;;;;29.07;20.97;;;;;;;15.30;84.31;101588.94;5073155;28;20370;-72
2023/05/15 08:26:24;;;;;;;;;;;;;;;15.17;84.14;101591.69;5078217;28;20115;-72
2023/05/15 08:28:50;;;;;;;31.88;21.95;;;;;;;15.05;85.50;101591.44;5076707;28;20023;-71
2023/05/15 08:31:15;;;;;;;39.93;23.73;;;;;;;15.02;84.94;101579.97;5052298;28;20119;-71
2023/05/15 08:33:41;;;;;;;31.10;20.77;;;;;;;14.95;86.12;101590.16;5074643;28;20047;-73
2023/05/15 08:36:07;;;;;;;34.03;21.75;;;;;;;14.80;86.04;101590.31;5069724;28;20045;-72
2023/05/15 08:38:33;;;;;;;32.97;23.20;;;;;;;14.67;86.88;101578.38;5067475;28;20081;-72
2023/05/15 08:41:09;;;;;;;35.70;24.80;;;;;;;14.59;88.34;101587.69;5080461;28;20434;-72
2023/05/15 08:43:36;;;;;;;32.38;23.52;;;;;;;14.67;88.41;101587.47;5072059;28;20087;-72
2023/05/15 08:46:02;;;;;;;41.38;27.50;;;;;;;14.64;89.28;101592.56;5079332;28;20024;-72
2023/05/15 08:48:28;;;;;;;38.25;27.55;;;;;;;14.55;90.11;101596.53;5050091;28;20032;-72
2023/05/15 08:50:56;;;;;;;;;;;;;;;14.57;90.11;101595.28;5075136;28;20041;-74
2023/05/15 08:53:22;;;;;;;49.67;31.98;;;;;;;14.49;91.33;101600.13;5075550;28;19970;-71
2023/05/15 08:55:48;;;;;;;48.50;34.60;;;;;;;14.50;91.35;101599.06;5074432;28;20871;-72
2023/05/15 08:58:15;;;;;;;51.33;36.08;;;;;;;14.58;91.55;101604.41;5053190;28;20032;-72
2023/05/15 09:00:41;;;;;;;49.20;36.22;;;;;;;14.54;92.43;101597.59;5047520;28;20455;-71
2023/05/15 09:03:13;;;;;;;49.27;35.87;;;;;;;14.53;92.00;101607.81;5055348;28;20119;-71
2023/05/15 09:05:38;;;;;;;53.30;38.47;;;;;;;14.45;92.27;101593.31;5065930;28;20479;-71
2023/05/15 09:08:06;;;;;;;57.17;38.93;;;;;;;14.46;92.18;101597.78;5052847;28;20031;-71
2023/05/15 09:10:32;;;;;;;52.55;38.97;;;;;;;14.59;92.04;101595.94;5066862;28;20115;-71
2023/05/15 09:13:00;;;;;;;;;;;;;;;14.64;91.90;101598.94;5071868;28;20032;-71
2023/05/15 09:15:26;;;;;;;54.33;38.88;;;;;;;14.66;92.35;101598.72;5072368;28;19912;-71
2023/05/15 09:17:56;;;;;;;52.17;38.10;;;;;;;14.76;91.58;101605.56;5075836;28;20038;-71
2023/05/15 09:20:35;;;;;;;53.35;38.70;;;;;;;14.76;91.41;101607.47;5064546;28;20511;-71
2023/05/15 09:23:02;;;;;;;49.97;36.72;;;;;;;14.82;91.75;101606.63;5075754;28;20025;-71
2023/05/15 09:25:36;;;;;;;53.67;39.30;;;;;;;14.74;91.54;101604.06;5082697;28;20039;-71
2023/05/15 09:28:01;;;;;;;55.60;39.50;;;;;;;14.69;92.34;101615.72;5052574;28;20048;-71
2023/05/15 09:30:29;;;;;;;57.77;40.93;;;;;;;14.53;93.08;101605.03;5069889;28;20036;-71
2023/05/15 09:32:58;;;;;;;60.67;40.67;;;;;;;14.59;93.04;101612.50;5076225;28;20036;-70
2023/05/15 09:35:32;;;;;;;61.90;41.40;;;;;;;14.55;93.63;101610.34;5066120;28;20041;-71
2023/05/15 09:38:00;;;;;;;53.85;39.28;;;;;;;14.51;94.11;101606.31;5054156;28;20035;-70
2023/05/15 09:40:31;;;;;;;57.97;39.28;;;;;;;14.54;94.59;101603.13;5074299;28;20035;-71
2023/05/15 09:42:57;;;;;;;58.72;40.50;;;;;;;14.28;95.40;101601.09;5075589;28;20029;-71
2023/05/15 09:45:25;;;;;;;57.97;39.00;;;;;;;14.52;95.33;101600.56;5056912;28;20024;-71
2023/05/15 09:47:51;;;;;;;60.17;41.17;;;;;;;14.54;94.78;101603.13;5058115;28;20506;-71
2023/05/15 09:50:33;;;;;;;58.93;39.67;;;;;;;14.66;94.51;101607.84;5074078;28;20040;-71
2023/05/15 09:52:58;;;;;;;59.95;40.45;;;;;;;14.59;94.62;101601.47;5074549;28;20024;-71
2023/05/15 09:55:24;;;;;;;53.63;39.70;;;;;;;14.75;94.90;101605.78;5071525;28;20082;-71
2023/05/15 09:58:13;;;;;;;55.87;39.97;;;;;;;14.83;94.83;101600.91;5078949;28;20032;-70
2023/05/15 10:00:40;;;;;;;57.13;37.90;;;;;;;14.81;94.58;101600.28;5074093;28;20028;-71
2023/05/15 10:03:07;;;;;;;61.55;40.08;;;;;;;14.88;93.92;101609.44;5080086;28;20112;-72
2023/05/15 10:05:33;;;;;;;59.95;38.47;;;;;;;14.84;95.09;101605.38;5075845;28;20028;-71
2023/05/15 10:07:59;;;;;;;63.67;39.63;;;;;;;14.84;94.52;101605.38;5079431;28;20116;-72
2023/05/15 10:10:26;;;;;;;60.60;39.97;;;;;;;14.84;95.04;101608.13;5060737;28;20043;-72
2023/05/15 10:12:53;;;;;;;55.17;38.28;;;;;;;14.81;95.42;101604.94;5078395;28;20027;-71
2023/05/15 10:15:20;;;;;;;57.25;36.85;;;;;;;14.82;94.91;101612.16;5075438;28;20033;-71
2023/05/15 10:17:49;;;;;;;;;;;;;;;14.88;94.43;101619.63;5076245;28;20046;-71
2023/05/15 10:20:16;;;;;;;50.58;32.45;;;;;;;14.78;94.36;101606.19;5064500;28;19923;-71
2023/05/15 10:22:44;;;;;;;;;;;;;;;14.80;94.43;101609.63;5071909;28;20507;-71
2023/05/15 10:25:21;;;;;;;49.55;32.85;;;;;;;14.87;93.90;101617.91;5079691;28;19912;-71
2023/05/15 10:27:48;;;;;;;48.13;31.30;;;;;;;15.07;93.45;101616.06;5044266;28;20032;-71
2023/05/15 10:30:15;;;;;;;45.72;31.63;;;;;;;15.11;92.49;101612.69;5072543;28;20464;-71
2023/05/15 10:32:43;;;;;;;50.13;30.58;;;;;;;15.41;92.40;101615.97;5076640;28;20063;-72
2023/05/15 10:35:10;;;;;;;51.80;31.00;;;;;;;15.36;91.44;101607.50;5068448;28;20016;-72
2023/05/15 10:37:37;;;;;;;44.28;30.42;;;;;;;15.28;91.21;101605.75;5075507;28;20074;-72
2023/05/15 10:40:10;;;;;;;44.25;29.13;;;;;;;15.50;91.94;101606.44;5078073;28;20419;-72
2023/05/15 10:42:40;;;;;;;43.40;29.75;;;;;;;15.40;90.92;101603.22;5076817;28;20032;-72
2023/05/15 10:45:07;;;;;;;44.97;28.00;;;;;;;15.46;90.94;101606.00;5076497;28;20024;-72
2023/05/15 10:47:34;;;;;;;40.15;26.17;;;;;;;15.36;90.30;101599.22;5075954;28;20113;-72
2023/05/15 10:50:00;;;;;;;34.22;24.65;;;;;;;15.40;89.95;101611.50;5079530;28;20114;-72
2023/05/15 10:52:25;;;;;;;40.00;22.95;;;;;;;15.28;88.87;101607.63;5056182;28;20147;-72
2023/05/15 10:54:55;;;;;;;33.27;23.43;;;;;;;15.35;88.72;101603.00;5076626;28;20234;-72
2023/05/15 10:57:21;;;;;;;33.40;22.95;;;;;;;15.22;89.65;101611.22;5076250;28;20115;-72
2023/05/15 10:59:47;;;;;;;33.10;23.42;;;;;;;15.17;89.37;101614.63;5048590;28;20483;-72
2023/05/15 11:02:28;;;;;;;32.93;23.60;;;;;;;15.08;90.57;101609.47;5076648;28;20059;-72
2023/05/15 11:04:57;;;;;;;35.92;24.33;;;;;;;14.99;90.75;101603.31;5075785;28;20016;-73
2023/05/15 11:07:23;;;;;;;37.40;25.05;;;;;;;15.04;91.28;101605.47;5079237;28;20036;-72
2023/05/15 11:09:49;;;;;;;38.87;25.03;;;;;;;15.07;90.64;101610.56;5076817;28;20024;-72